createdAt,value
2022-11-10T00:02:27.938Z,48.07
2022-11-10T00:05:15.055Z,48.15
2022-11-10T00:08:05.843Z,48.30
2022-11-10T00:11:02.028Z,47.70
2022-11-10T00:14:07.475Z,47.54
2022-11-10T00:17:02.593Z,48.96
2022-11-10T00:19:48.229Z,48.98
2022-11-10T00:22:34.794Z,48.43
2022-11-10T00:25:20.589Z,48.54
2022-11-10T00:28:06.058Z,48.11
2022-11-10T00:30:51.538Z,48.60
2022-11-10T00:33:39.027Z,48.09
2022-11-10T00:36:25.051Z,48.31
2022-11-10T00:39:12.265Z,51.41
2022-11-10T00:41:57.813Z,53.73
2022-11-10T00:44:42.904Z,53.58
2022-11-10T00:47:28.363Z,52.92
2022-11-10T00:50:13.940Z,54.09
2022-11-10T00:52:59.409Z,52.24
2022-11-10T00:55:44.772Z,51.46
2022-11-10T00:58:30.258Z,52.05
2022-11-10T01:01:17.151Z,50.50
2022-11-10T01:04:03.035Z,49.66
2022-11-10T01:06:48.606Z,50.50
2022-11-10T01:09:33.794Z,49.65
2022-11-10T01:12:19.408Z,49.20
2022-11-10T01:15:05.490Z,49.75
2022-11-10T01:17:51.748Z,49.24
2022-11-10T01:20:37.204Z,49.78
2022-11-10T01:23:22.883Z,52.11
2022-11-10T01:26:09.434Z,52.80
2022-11-10T01:28:54.877Z,52.87
2022-11-10T01:31:40.138Z,52.42
2022-11-10T01:34:25.746Z,53.06
2022-11-10T01:37:12.159Z,53.60
2022-11-10T01:39:57.629Z,53.92
2022-11-10T01:42:56.592Z,52.76
2022-11-10T01:45:47.794Z,53.61
2022-11-10T01:48:50.671Z,52.68
2022-11-10T01:51:50.947Z,51.61
2022-11-10T01:54:43.364Z,53.06
2022-11-10T01:57:29.053Z,52.72
2022-11-10T02:00:15.171Z,51.42
2022-11-10T02:03:12.799Z,51.21
2022-11-10T02:05:58.336Z,50.13
2022-11-10T02:08:45.723Z,50.37
2022-11-10T02:11:32.305Z,50.05
2022-11-10T02:14:17.884Z,50.18
2022-11-10T02:17:03.859Z,49.65
2022-11-10T02:19:52.560Z,49.39
2022-11-10T02:22:38.438Z,49.50
2022-11-10T02:25:29.898Z,49.57
2022-11-10T02:28:15.100Z,49.40
2022-11-10T02:31:00.676Z,51.10
2022-11-10T02:33:46.524Z,50.43
2022-11-10T02:36:31.814Z,50.13
2022-11-10T02:39:17.575Z,50.05
2022-11-10T02:42:04.165Z,51.14
2022-11-10T02:44:49.715Z,50.09
2022-11-10T02:47:35.524Z,50.00
2022-11-10T02:50:21.130Z,49.71
2022-11-10T02:53:07.171Z,49.64
2022-11-10T02:55:52.533Z,49.78
2022-11-10T02:58:38.061Z,50.70
2022-11-10T03:01:23.591Z,50.56
2022-11-10T03:04:08.984Z,51.06
2022-11-10T03:06:54.242Z,51.91
2022-11-10T03:09:39.411Z,53.59
2022-11-10T03:12:24.735Z,52.75
2022-11-10T03:15:10.348Z,54.72
2022-11-10T03:17:56.558Z,56.03
2022-11-10T03:20:42.406Z,56.94
2022-11-10T03:23:27.788Z,56.04
2022-11-10T03:26:13.118Z,54.31
2022-11-10T03:28:58.667Z,53.09
2022-11-10T03:31:44.101Z,52.35
2022-11-10T03:34:31.945Z,52.95
2022-11-10T03:37:17.585Z,52.54
2022-11-10T03:40:03.083Z,52.12
2022-11-10T03:42:48.651Z,52.14
2022-11-10T03:45:34.062Z,51.49
2022-11-10T03:48:19.388Z,52.79
2022-11-10T03:51:05.022Z,52.05
2022-11-10T03:53:50.734Z,52.50
2022-11-10T03:56:36.033Z,51.25
2022-11-10T03:59:21.227Z,50.70
2022-11-10T04:02:06.764Z,50.84
2022-11-10T04:05:10.498Z,49.81
2022-11-10T04:08:20.919Z,48.93
2022-11-10T04:11:06.528Z,48.92
2022-11-10T04:14:10.614Z,48.98
2022-11-10T04:16:56.794Z,49.25
2022-11-10T04:19:42.580Z,49.87
2022-11-10T04:22:46.554Z,50.09
2022-11-10T04:25:52.102Z,49.80
2022-11-10T04:28:37.798Z,49.75
2022-11-10T04:31:24.730Z,51.50
2022-11-10T04:34:12.727Z,50.89
2022-11-10T04:36:58.153Z,51.16
2022-11-10T04:39:43.542Z,53.63
2022-11-10T04:42:29.366Z,54.03
2022-11-10T04:45:14.756Z,52.34
2022-11-10T04:48:00.163Z,51.44
2022-11-10T04:50:45.683Z,51.05
2022-11-10T04:53:31.090Z,52.55
2022-11-10T04:56:22.305Z,53.46
2022-11-10T04:59:07.440Z,52.04
2022-11-10T05:01:52.838Z,51.81
2022-11-10T05:04:38.213Z,51.95
2022-11-10T05:07:23.609Z,51.54
2022-11-10T05:10:09.541Z,51.56
2022-11-10T05:12:56.591Z,55.87
2022-11-10T05:15:42.265Z,52.15
2022-11-10T05:18:27.430Z,52.05
2022-11-10T05:21:12.860Z,51.44
2022-11-10T05:23:59.277Z,51.00
2022-11-10T05:26:45.042Z,51.69
2022-11-10T05:29:30.391Z,52.74
2022-11-10T05:32:15.960Z,54.09
2022-11-10T05:35:03.502Z,52.76
2022-11-10T05:37:48.867Z,53.83
2022-11-10T05:40:35.092Z,52.75
2022-11-10T05:43:20.565Z,52.13
2022-11-10T05:46:06.338Z,51.23
2022-11-10T05:48:54.069Z,51.94
2022-11-10T05:51:39.658Z,51.01
2022-11-10T05:54:25.212Z,50.76
2022-11-10T05:57:10.602Z,50.69
2022-11-10T05:59:56.139Z,50.28
2022-11-10T06:02:41.703Z,50.10
2022-11-10T06:05:31.170Z,51.33
2022-11-10T06:08:18.031Z,51.94
2022-11-10T06:11:04.480Z,51.17
2022-11-10T06:13:49.635Z,53.97
2022-11-10T06:16:35.038Z,52.73
2022-11-10T06:19:20.501Z,52.23
2022-11-10T06:22:07.780Z,52.89
2022-11-10T06:24:53.445Z,52.26
2022-11-10T06:27:43.428Z,53.11
2022-11-10T06:30:30.549Z,53.05
2022-11-10T06:33:16.053Z,52.52
2022-11-10T06:36:01.465Z,51.72
2022-11-10T06:38:47.022Z,51.58
2022-11-10T06:41:33.960Z,50.87
2022-11-10T06:44:19.428Z,51.14
2022-11-10T06:47:04.793Z,51.00
2022-11-10T06:49:50.545Z,50.57
2022-11-10T06:52:36.241Z,50.75
2022-11-10T06:55:21.840Z,50.60
2022-11-10T06:58:07.278Z,50.60
2022-11-10T07:00:52.829Z,50.14
2022-11-10T07:03:44.453Z,50.23
2022-11-10T07:06:38.641Z,50.34
2022-11-10T07:09:23.898Z,50.36
2022-11-10T07:12:09.461Z,49.90
2022-11-10T07:14:54.892Z,49.64
2022-11-10T07:17:41.395Z,49.92
2022-11-10T07:20:28.469Z,50.30
2022-11-10T07:23:15.071Z,50.89
2022-11-10T07:26:01.193Z,51.41
2022-11-10T07:28:46.635Z,51.77
2022-11-10T07:31:32.106Z,51.33
2022-11-10T07:34:17.696Z,50.67
2022-11-10T07:37:03.322Z,50.27
2022-11-10T07:39:48.479Z,51.94
2022-11-10T07:42:39.757Z,51.80
2022-11-10T07:45:25.982Z,51.78
2022-11-10T07:48:11.971Z,51.55
2022-11-10T07:50:58.766Z,50.54
2022-11-10T07:53:44.508Z,50.04
2022-11-10T07:56:30.129Z,50.12
2022-11-10T07:59:15.592Z,49.35
2022-11-10T08:02:00.891Z,49.83
2022-11-10T08:04:46.329Z,49.17
2022-11-10T08:07:31.964Z,48.18
2022-11-10T08:10:17.683Z,51.02
2022-11-10T08:13:05.495Z,49.77
2022-11-10T08:15:50.948Z,48.95
2022-11-10T08:18:36.422Z,50.18
2022-11-10T08:21:21.615Z,51.96
2022-11-10T08:24:08.450Z,51.34
2022-11-10T08:26:54.067Z,49.76
2022-11-10T08:29:39.512Z,47.33
2022-11-10T08:32:26.026Z,46.73
2022-11-10T08:35:11.619Z,47.77
2022-11-10T08:37:57.437Z,48.80
2022-11-10T08:40:44.307Z,48.21
2022-11-10T08:43:29.972Z,47.03
2022-11-10T08:46:15.570Z,47.49
2022-11-10T08:49:01.326Z,46.79
2022-11-10T08:51:46.425Z,47.71
2022-11-10T08:54:32.017Z,48.34
2022-11-10T08:57:17.434Z,47.40
2022-11-10T09:00:03.508Z,46.77
2022-11-10T09:02:49.021Z,46.12
2022-11-10T09:05:36.018Z,46.93
2022-11-10T09:08:21.377Z,46.63
2022-11-10T09:11:06.679Z,48.37
2022-11-10T09:13:52.087Z,47.76
2022-11-10T09:16:37.687Z,47.55
2022-11-10T09:19:23.195Z,46.57
2022-11-10T09:22:09.660Z,46.31
2022-11-10T09:24:55.439Z,46.38
2022-11-10T09:27:40.952Z,45.14
2022-11-10T09:30:26.650Z,45.44
2022-11-10T09:33:12.773Z,46.93
2022-11-10T09:35:59.852Z,45.88
2022-11-10T09:38:45.521Z,45.59
2022-11-10T09:41:31.168Z,45.06
2022-11-10T09:44:27.590Z,45.52
2022-11-10T09:47:50.612Z,44.83
2022-11-10T09:50:39.984Z,44.58
2022-11-10T09:53:29.933Z,44.32
2022-11-10T09:56:22.692Z,45.82
2022-11-10T09:59:26.695Z,45.09
2022-11-10T10:02:39.887Z,44.68
2022-11-10T10:05:35.176Z,43.87
2022-11-10T10:08:38.672Z,44.01
2022-11-10T10:12:02.550Z,44.36
2022-11-10T10:14:56.560Z,44.95
2022-11-10T10:17:54.340Z,44.36
2022-11-10T10:21:10.690Z,43.42
2022-11-10T10:24:21.040Z,43.09
2022-11-10T10:27:07.105Z,42.48
2022-11-10T10:29:53.151Z,44.21
2022-11-10T10:32:38.810Z,42.63
2022-11-10T10:35:25.163Z,42.77
2022-11-10T10:38:25.077Z,42.65
2022-11-10T10:41:18.274Z,42.40
2022-11-10T10:44:17.947Z,41.98
2022-11-10T10:47:04.617Z,42.39
2022-11-10T10:49:50.089Z,42.71
2022-11-10T10:52:35.491Z,41.08
2022-11-10T10:55:20.866Z,41.67
2022-11-10T10:58:24.182Z,41.45
2022-11-10T11:01:16.123Z,41.07
2022-11-10T11:04:06.745Z,42.66
2022-11-10T11:06:58.701Z,41.31
2022-11-10T11:09:44.879Z,40.55
2022-11-10T11:12:31.667Z,40.94
2022-11-10T11:15:26.734Z,41.18
2022-11-10T11:18:20.497Z,40.88
2022-11-10T11:21:25.088Z,41.21
2022-11-10T11:24:23.139Z,40.31
2022-11-10T11:27:17.657Z,40.77
2022-11-10T11:30:05.877Z,39.87
2022-11-10T11:33:04.315Z,38.56
2022-11-10T11:36:07.739Z,39.08
2022-11-10T11:39:02.589Z,38.81
2022-11-10T11:42:25.687Z,38.23
2022-11-10T11:45:14.271Z,37.40
2022-11-10T11:48:19.775Z,35.87
2022-11-10T11:51:16.574Z,33.86
2022-11-10T11:54:39.048Z,34.05
2022-11-10T11:57:43.445Z,33.42
2022-11-10T12:00:36.843Z,31.46
2022-11-10T12:03:37.723Z,31.28
2022-11-10T12:06:47.119Z,29.93
2022-11-10T12:09:48.163Z,29.35
2022-11-10T12:13:18.463Z,30.19
2022-11-10T12:16:42.670Z,29.85
2022-11-10T12:19:55.063Z,28.56
2022-11-10T12:22:54.493Z,28.33
2022-11-10T12:26:17.107Z,28.15
2022-11-10T12:29:21.859Z,26.60
2022-11-10T12:32:24.745Z,26.27
2022-11-10T12:35:24.405Z,26.81
2022-11-10T12:38:43.732Z,26.19
2022-11-10T12:41:37.256Z,27.80
2022-11-10T12:44:58.225Z,26.59
2022-11-10T12:47:46.010Z,26.14
2022-11-10T12:51:13.819Z,24.75
2022-11-10T12:53:58.897Z,24.81
2022-11-10T12:56:59.035Z,25.75
2022-11-10T13:00:00.601Z,24.50
2022-11-10T13:02:46.959Z,25.31
2022-11-10T13:05:57.223Z,24.85
2022-11-10T13:08:42.311Z,25.23
2022-11-10T13:11:37.644Z,24.54
2022-11-10T13:14:29.118Z,24.58
2022-11-10T13:17:26.566Z,25.67
2022-11-10T13:20:47.255Z,26.66
2022-11-10T13:23:35.846Z,26.37
2022-11-10T13:26:40.094Z,26.60
2022-11-10T13:29:48.828Z,26.89
2022-11-10T13:32:35.509Z,27.27
2022-11-10T13:35:30.391Z,27.22
2022-11-10T13:38:40.636Z,28.13
2022-11-10T13:41:27.171Z,28.25
2022-11-10T13:44:26.437Z,29.46
2022-11-10T13:47:41.439Z,30.39
2022-11-10T13:50:41.832Z,31.95
2022-11-10T13:53:40.083Z,32.25
2022-11-10T13:56:42.661Z,32.89
2022-11-10T13:59:31.300Z,33.82
2022-11-10T14:02:41.556Z,34.23
2022-11-10T14:05:29.771Z,34.23
2022-11-10T14:08:21.807Z,34.39
2022-11-10T14:11:15.421Z,33.75
2022-11-10T14:14:14.745Z,34.00
2022-11-10T14:17:01.066Z,34.18
2022-11-10T14:19:47.216Z,34.75
2022-11-10T14:22:43.081Z,35.09
2022-11-10T14:25:36.225Z,35.34
2022-11-10T14:28:30.016Z,35.37
2022-11-10T14:31:25.228Z,35.84
2022-11-10T14:34:16.575Z,36.41
2022-11-10T14:37:03.721Z,36.42
2022-11-10T14:39:55.450Z,36.29
2022-11-10T14:42:40.523Z,36.59
2022-11-10T14:45:28.655Z,36.10
2022-11-10T14:48:19.734Z,36.86
2022-11-10T14:51:18.936Z,37.56
2022-11-10T14:54:04.801Z,37.18
2022-11-10T14:56:50.393Z,37.52
2022-11-10T14:59:37.790Z,37.51
2022-11-10T15:02:24.565Z,37.90
2022-11-10T15:05:15.685Z,37.98
2022-11-10T15:08:03.066Z,37.93
2022-11-10T15:10:53.216Z,38.38
2022-11-10T15:13:39.735Z,38.46
2022-11-10T15:16:31.137Z,38.80
2022-11-10T15:20:05.324Z,39.98
2022-11-10T15:22:50.835Z,39.56
2022-11-10T15:25:40.706Z,39.62
2022-11-10T15:28:36.151Z,40.50
2022-11-10T15:31:26.475Z,39.93
2022-11-10T15:34:45.331Z,39.57
2022-11-10T15:37:31.609Z,39.55
2022-11-10T15:40:36.234Z,39.42
2022-11-10T15:43:22.734Z,40.19
2022-11-10T15:46:30.301Z,40.04
2022-11-10T15:49:28.073Z,40.44
2022-11-10T15:52:21.073Z,40.71
2022-11-10T15:55:06.452Z,41.32
2022-11-10T15:57:53.258Z,41.84
2022-11-10T16:00:38.822Z,41.44
2022-11-10T16:03:24.838Z,40.80
2022-11-10T16:06:14.638Z,41.68
2022-11-10T16:08:59.876Z,42.13
2022-11-10T16:11:46.080Z,41.56
2022-11-10T16:14:31.897Z,42.34
2022-11-10T16:17:18.022Z,41.20
2022-11-10T16:20:03.951Z,41.80
2022-11-10T16:22:49.656Z,42.26
2022-11-10T16:25:38.423Z,43.88
2022-11-10T16:28:26.885Z,43.31
2022-11-10T16:31:12.213Z,42.52
2022-11-10T16:33:57.644Z,42.92
2022-11-10T16:36:44.060Z,43.45
2022-11-10T16:39:30.394Z,42.76
2022-11-10T16:42:15.890Z,43.45
2022-11-10T16:45:01.382Z,42.67
2022-11-10T16:47:50.092Z,43.40
2022-11-10T16:50:37.763Z,42.80
2022-11-10T16:53:28.382Z,41.58
2022-11-10T16:56:15.729Z,41.89
2022-11-10T16:59:01.272Z,42.79
2022-11-10T17:01:47.902Z,42.67
2022-11-10T17:04:33.504Z,43.02
2022-11-10T17:07:25.414Z,42.11
2022-11-10T17:10:19.567Z,42.97
2022-11-10T17:13:05.372Z,42.05
2022-11-10T17:15:55.689Z,44.23
2022-11-10T17:18:41.077Z,42.43
2022-11-10T17:21:32.533Z,42.09
2022-11-10T17:24:18.935Z,42.29
2022-11-10T17:27:04.295Z,42.97
2022-11-10T17:29:49.902Z,43.54
2022-11-10T17:33:02.922Z,42.11
2022-11-10T17:35:50.772Z,41.45
2022-11-10T17:38:36.725Z,41.87
2022-11-10T17:41:22.463Z,42.00
2022-11-10T17:44:16.427Z,42.04
2022-11-10T17:47:01.751Z,42.34
2022-11-10T17:49:47.473Z,41.54
2022-11-10T17:52:32.811Z,42.13
2022-11-10T17:55:23.873Z,41.83
2022-11-10T17:58:10.563Z,42.04
2022-11-10T18:00:56.190Z,42.54
2022-11-10T18:03:41.912Z,42.88
2022-11-10T18:06:27.579Z,45.11
2022-11-10T18:09:13.079Z,44.22
2022-11-10T18:11:58.595Z,42.89
2022-11-10T18:14:43.884Z,42.99
2022-11-10T18:17:29.464Z,43.25
2022-11-10T18:20:15.007Z,43.31
2022-11-10T18:23:01.750Z,43.79
2022-11-10T18:25:47.502Z,43.10
2022-11-10T18:28:34.507Z,42.70
2022-11-10T18:31:19.805Z,43.87
2022-11-10T18:34:05.151Z,44.75
2022-11-10T18:36:52.279Z,44.02
2022-11-10T18:39:37.727Z,43.24
2022-11-10T18:42:23.557Z,43.92
2022-11-10T18:45:09.308Z,44.60
2022-11-10T18:48:00.146Z,47.32
2022-11-10T18:50:45.616Z,48.25
2022-11-10T18:53:37.011Z,48.58
2022-11-10T18:56:24.460Z,48.54
2022-11-10T18:59:09.886Z,47.53
2022-11-10T19:01:55.668Z,46.61
2022-11-10T19:04:41.287Z,45.96
2022-11-10T19:07:26.801Z,46.04
2022-11-10T19:10:12.239Z,45.31
2022-11-10T19:12:58.217Z,45.01
2022-11-10T19:15:43.468Z,45.42
2022-11-10T19:18:29.369Z,45.82
2022-11-10T19:21:20.588Z,46.13
2022-11-10T19:24:06.508Z,46.34
2022-11-10T19:26:52.504Z,45.89
2022-11-10T19:29:38.175Z,46.01
2022-11-10T19:32:25.035Z,46.74
2022-11-10T19:35:12.187Z,47.58
2022-11-10T19:37:58.015Z,47.49
2022-11-10T19:40:44.658Z,48.40
2022-11-10T19:43:31.124Z,50.95
2022-11-10T19:46:28.906Z,51.38
2022-11-10T19:49:14.471Z,49.93
2022-11-10T19:52:00.031Z,50.55
2022-11-10T19:54:45.497Z,49.27
2022-11-10T19:57:30.875Z,47.69
2022-11-10T20:00:17.654Z,47.87
2022-11-10T20:03:03.184Z,47.47
2022-11-10T20:05:57.873Z,47.41
2022-11-10T20:08:46.629Z,47.66
2022-11-10T20:11:32.389Z,47.89
2022-11-10T20:14:17.650Z,47.94
2022-11-10T20:17:03.084Z,48.31
2022-11-10T20:19:49.340Z,48.73
2022-11-10T20:22:35.098Z,48.76
2022-11-10T20:25:20.687Z,50.60
2022-11-10T20:28:06.908Z,49.34
2022-11-10T20:30:56.030Z,48.06
2022-11-10T20:33:41.556Z,48.48
2022-11-10T20:36:29.854Z,50.03
2022-11-10T20:39:15.233Z,48.32
2022-11-10T20:42:00.980Z,48.06
2022-11-10T20:44:46.138Z,47.95
2022-11-10T20:47:32.358Z,47.53
2022-11-10T20:50:23.080Z,47.91
2022-11-10T20:53:09.612Z,49.50
2022-11-10T20:56:04.107Z,48.58
2022-11-10T20:58:51.888Z,47.89
2022-11-10T21:01:37.927Z,48.24
2022-11-10T21:04:23.730Z,48.02
2022-11-10T21:07:09.152Z,47.64
2022-11-10T21:09:54.443Z,47.52
2022-11-10T21:12:51.756Z,48.73
2022-11-10T21:15:40.539Z,51.82
2022-11-10T21:18:28.689Z,49.77
2022-11-10T21:21:28.112Z,49.56
2022-11-10T21:24:13.874Z,49.24
2022-11-10T21:26:59.419Z,49.73
2022-11-10T21:29:45.138Z,48.89
2022-11-10T21:32:31.007Z,49.04
2022-11-10T21:35:16.991Z,48.86
2022-11-10T21:38:04.679Z,49.17
2022-11-10T21:40:50.413Z,48.97
2022-11-10T21:43:35.711Z,48.96
2022-11-10T21:46:21.216Z,49.21
2022-11-10T21:49:08.104Z,48.94
2022-11-10T21:51:54.579Z,48.70
2022-11-10T21:54:40.480Z,48.71
2022-11-10T21:57:25.928Z,50.49
2022-11-10T22:00:13.146Z,50.13
2022-11-10T22:03:03.742Z,49.26
2022-11-10T22:05:49.495Z,50.23
2022-11-10T22:08:35.663Z,50.32
2022-11-10T22:11:40.061Z,49.99
2022-11-10T22:14:43.957Z,48.62
2022-11-10T22:17:48.092Z,48.52
2022-11-10T22:20:33.330Z,49.17
2022-11-10T22:23:18.706Z,49.01
2022-11-10T22:26:03.814Z,49.16
2022-11-10T22:28:49.736Z,49.31
2022-11-10T22:31:35.343Z,48.56
2022-11-10T22:34:21.249Z,48.55
2022-11-10T22:37:06.896Z,48.68
2022-11-10T22:40:10.857Z,48.83
2022-11-10T22:43:15.002Z,48.52
2022-11-10T22:46:00.577Z,49.42
2022-11-10T22:48:45.839Z,50.65
2022-11-10T22:51:31.963Z,50.06
2022-11-10T22:54:19.655Z,49.73
2022-11-10T22:57:05.402Z,49.55
2022-11-10T22:59:50.653Z,49.40
2022-11-10T23:02:37.301Z,48.71
2022-11-10T23:05:22.457Z,48.83
2022-11-10T23:08:07.880Z,48.61
2022-11-10T23:10:59.762Z,49.23
2022-11-10T23:13:45.615Z,49.06
2022-11-10T23:16:34.418Z,49.40
2022-11-10T23:19:19.893Z,50.42
2022-11-10T23:22:05.090Z,50.48
2022-11-10T23:24:55.795Z,49.71
2022-11-10T23:27:42.321Z,48.97
2022-11-10T23:30:27.684Z,49.36
2022-11-10T23:33:12.920Z,48.65
2022-11-10T23:35:58.890Z,48.56
2022-11-10T23:38:44.939Z,48.78
2022-11-10T23:41:30.618Z,48.81
2022-11-10T23:44:16.919Z,48.79
2022-11-10T23:47:02.850Z,48.55
2022-11-10T23:49:48.278Z,48.52
2022-11-10T23:52:34.119Z,48.46
2022-11-10T23:55:19.329Z,48.72
2022-11-10T23:58:05.484Z,48.97
